Time;durP1;ratioP1;P1;durP2;ratioP2;P2;SDS_P1;SDS_P2;PMS_P1;PMS_P2;Temp;Humidity;BMP_temperature;BMP_pressure;BME280_temperature;BME280_humidity;BME280_pressure;Samples;Min_cycle;Max_cycle;Signal;HPM_P1;HPM_P2
2021/06/29 00:00:23;;;;;;;19.00;18.00;;;18.90;94.60;;;;;;5084276;28;20557;-76
2021/06/29 00:02:59;;;;;;;19.00;18.00;;;19.00;94.60;;;;;;5098799;27;20464;-76
2021/06/29 00:05:26;;;;;;;20.13;19.00;;;19.00;94.10;;;;;;5084925;28;20468;-76
2021/06/29 00:07:53;;;;;;;20.20;19.10;;;19.10;94.20;;;;;;5086282;28;20453;-76
2021/06/29 00:10:23;;;;;;;20.10;19.00;;;19.00;94.20;;;;;;5085986;28;20464;-76
2021/06/29 00:12:50;;;;;;;20.67;19.47;;;19.10;94.20;;;;;;5086286;28;20974;-76
2021/06/29 00:15:17;;;;;;;21.13;19.93;;;19.10;94.20;;;;;;5084853;28;20481;-76
2021/06/29 00:17:44;;;;;;;20.47;19.37;;;19.10;94.10;;;;;;5084678;28;20479;-76
2021/06/29 00:20:14;;;;;;;19.90;18.80;;;19.10;94.50;;;;;;5085206;28;20449;-76
2021/06/29 00:22:41;;;;;;;19.77;18.77;;;19.10;94.60;;;;;;5084520;28;20453;-76
2021/06/29 00:25:10;;;;;;;20.23;18.83;;;19.10;94.40;;;;;;5084701;28;20884;-76
2021/06/29 00:27:37;;;;;;;20.47;19.27;;;19.00;94.40;;;;;;5088469;27;20741;-76
2021/06/29 00:30:05;;;;;;;20.03;18.93;;;19.00;94.90;;;;;;5090864;28;20564;-76
2021/06/29 00:32:32;;;;;;;20.67;18.97;;;19.10;94.50;;;;;;5090022;28;20527;-76
2021/06/29 00:34:59;;;;;;;19.97;18.87;;;19.10;94.40;;;;;;5080479;28;20482;-76
2021/06/29 00:37:27;;;;;;;20.13;18.93;;;19.10;94.20;;;;;;5088203;28;20546;-76
2021/06/29 00:39:54;;;;;;;19.30;18.17;;;19.00;93.90;;;;;;5085635;28;20460;-76
2021/06/29 00:42:21;;;;;;;19.93;18.83;;;19.00;94.20;;;;;;5085126;28;20854;-75
2021/06/29 00:44:48;;;;;;;19.57;18.53;;;19.00;94.00;;;;;;5082470;28;20480;-76
2021/06/29 00:47:15;;;;;;;20.43;19.33;;;19.10;94.00;;;;;;5082526;28;20468;-76
2021/06/29 00:49:43;;;;;;;19.13;18.13;;;19.00;94.00;;;;;;5084651;28;20994;-75
2021/06/29 00:52:12;;;;;;;19.57;18.40;;;19.00;94.10;;;;;;5089560;28;20760;-76
2021/06/29 00:54:42;;;;;;;20.70;19.60;;;19.00;94.00;;;;;;5083523;28;20484;-75
2021/06/29 00:57:10;;;;;;;19.27;18.27;;;19.00;94.40;;;;;;5082113;28;20484;-76
2021/06/29 00:59:38;;;;;;;19.40;18.20;;;19.10;94.50;;;;;;5084130;28;20473;-76
2021/06/29 01:02:06;;;;;;;20.07;19.00;;;19.10;94.50;;;;;;5092710;28;20456;-76
2021/06/29 01:04:33;;;;;;;20.23;19.10;;;19.10;94.10;;;;;;5085362;28;20491;-76
2021/06/29 01:07:01;;;;;;;19.23;18.10;;;19.00;94.10;;;;;;5082288;28;20469;-75
2021/06/29 01:09:28;;;;;;;18.80;17.80;;;19.00;94.20;;;;;;5084851;28;20453;-76
2021/06/29 01:11:56;;;;;;;19.00;18.00;;;19.00;93.70;;;;;;5084002;28;20568;-75
2021/06/29 01:14:23;;;;;;;19.50;18.60;;;19.00;93.60;;;;;;5083399;28;21041;-76
2021/06/29 01:16:50;;;;;;;20.00;19.00;;;19.00;93.10;;;;;;5082532;28;20771;-76
2021/06/29 01:19:19;;;;;;;19.03;18.13;;;19.10;93.00;;;;;;5082821;28;20469;-76
2021/06/29 01:21:50;;;;;;;19.13;18.13;;;19.10;92.70;;;;;;5089871;28;20453;-76
2021/06/29 01:24:22;;;;;;;19.00;18.00;;;19.00;93.00;;;;;;5101892;28;20476;-76
2021/06/29 01:26:55;;;;;;;19.53;18.53;;;19.10;92.90;;;;;;5082629;28;20489;-76
2021/06/29 01:29:34;;;;;;;18.80;17.80;;;19.10;92.30;;;;;;5083342;28;20528;-76
2021/06/29 01:32:00;;;;;;;19.57;18.50;;;19.10;92.10;;;;;;5092220;28;20456;-75
2021/06/29 01:34:28;;;;;;;19.57;18.63;;;19.20;91.40;;;;;;5092820;28;20475;-76
2021/06/29 01:36:57;;;;;;;19.50;18.50;;;19.20;91.60;;;;;;5087554;28;20471;-76
2021/06/29 01:39:23;;;;;;;18.90;18.00;;;19.20;91.20;;;;;;5092884;28;20625;-76
2021/06/29 01:41:50;;;;;;;19.33;18.40;;;19.10;90.70;;;;;;5091986;28;20544;-76
2021/06/29 01:44:22;;;;;;;20.10;19.10;;;19.20;90.40;;;;;;5084084;28;20994;-76
2021/06/29 01:46:52;;;;;;;20.70;19.60;;;19.20;90.30;;;;;;5088841;28;20869;-76
2021/06/29 01:49:25;;;;;;;19.50;18.50;;;19.20;89.70;;;;;;5084715;28;20504;-76
2021/06/29 01:51:52;;;;;;;19.60;18.70;;;19.30;89.50;;;;;;5084075;28;20462;-76
2021/06/29 01:54:20;;;;;;;19.60;18.53;;;19.40;89.10;;;;;;5084550;28;20476;-75
2021/06/29 01:56:47;;;;;;;19.20;18.30;;;19.30;88.80;;;;;;5083774;28;20459;-76
2021/06/29 01:59:17;;;;;;;19.30;18.30;;;19.40;88.60;;;;;;5087211;28;20906;-76
2021/06/29 02:01:44;;;;;;;19.07;18.07;;;19.40;88.80;;;;;;5091869;28;20470;-76
2021/06/29 02:04:11;;;;;;;20.70;19.23;;;19.40;89.10;;;;;;5096499;28;20469;-75
2021/06/29 02:06:40;;;;;;;19.43;18.43;;;19.30;89.40;;;;;;5082374;28;20795;-75
2021/06/29 02:09:08;;;;;;;19.87;18.67;;;19.30;90.10;;;;;;5084827;28;20455;-75
2021/06/29 02:11:37;;;;;;;20.10;18.67;;;19.30;90.20;;;;;;5080115;28;20939;-75
2021/06/29 02:14:05;;;;;;;20.60;19.23;;;19.20;90.60;;;;;;5070818;28;20510;-75
2021/06/29 02:16:32;;;;;;;18.60;17.70;;;19.20;91.40;;;;;;5088587;28;20468;-75
2021/06/29 02:18:59;;;;;;;19.10;18.03;;;19.20;91.30;;;;;;5104356;28;20480;-75
2021/06/29 02:21:26;;;;;;;18.97;18.07;;;19.10;91.30;;;;;;5081698;28;20533;-75
2021/06/29 02:23:53;;;;;;;19.17;18.27;;;19.10;91.50;;;;;;5084277;28;20563;-75
2021/06/29 02:26:20;;;;;;;19.33;18.37;;;19.10;91.30;;;;;;5083297;28;20453;-76
2021/06/29 02:28:48;;;;;;;19.30;18.30;;;19.10;91.30;;;;;;5083172;28;20471;-76
2021/06/29 02:31:15;;;;;;;19.53;18.43;;;19.10;91.30;;;;;;5083000;28;20455;-75
2021/06/29 02:33:42;;;;;;;19.47;18.17;;;19.00;91.50;;;;;;5096027;28;20453;-75
2021/06/29 02:36:09;;;;;;;20.57;18.90;;;19.00;91.90;;;;;;5084408;28;20464;-75
2021/06/29 02:38:36;;;;;;;19.13;18.13;;;19.00;92.00;;;;;;5084423;28;20483;-75
2021/06/29 02:41:04;;;;;;;19.83;18.83;;;19.00;92.20;;;;;;5083635;28;20456;-75
2021/06/29 02:43:31;;;;;;;20.13;18.77;;;18.90;92.10;;;;;;5082950;28;20473;-75
2021/06/29 02:45:59;;;;;;;19.23;18.33;;;18.90;92.30;;;;;;5082516;28;20461;-75
2021/06/29 02:48:26;;;;;;;19.20;18.17;;;18.90;92.30;;;;;;5100723;28;20460;-75
2021/06/29 02:50:53;;;;;;;19.20;18.07;;;19.00;91.60;;;;;;5080750;28;20463;-75
2021/06/29 02:53:21;;;;;;;19.20;18.20;;;18.90;92.20;;;;;;5080563;28;20465;-75
2021/06/29 02:55:48;;;;;;;19.27;18.27;;;18.80;91.60;;;;;;5081704;28;20994;-75
2021/06/29 02:58:15;;;;;;;20.27;19.17;;;18.60;92.80;;;;;;5095895;28;20470;-75
2021/06/29 03:00:42;;;;;;;19.37;18.40;;;18.60;93.00;;;;;;5084883;28;20986;-75
2021/06/29 03:03:10;;;;;;;19.30;18.40;;;18.70;92.80;;;;;;5085398;28;21032;-76
2021/06/29 03:05:37;;;;;;;19.20;18.20;;;18.70;92.40;;;;;;5082111;28;20476;-75
2021/06/29 03:08:04;;;;;;;19.80;18.80;;;18.80;92.50;;;;;;5080973;28;20453;-75
2021/06/29 03:10:31;;;;;;;20.10;18.90;;;18.80;92.80;;;;;;5082394;28;20456;-75
2021/06/29 03:12:58;;;;;;;21.20;20.00;;;18.80;93.00;;;;;;5081755;28;20855;-75
2021/06/29 03:15:26;;;;;;;20.57;19.40;;;18.80;93.20;;;;;;5081866;28;20576;-76
2021/06/29 03:17:53;;;;;;;20.60;19.60;;;18.80;93.40;;;;;;5091732;28;20510;-76
2021/06/29 03:20:21;;;;;;;21.50;20.10;;;18.80;93.00;;;;;;5081599;28;21056;-75
2021/06/29 03:22:49;;;;;;;20.73;19.57;;;18.80;93.00;;;;;;5083259;28;20461;-76
2021/06/29 03:25:15;;;;;;;19.93;18.93;;;18.80;93.60;;;;;;5081742;28;20476;-75
2021/06/29 03:27:42;;;;;;;21.20;19.90;;;18.80;93.60;;;;;;5089857;28;20462;-75
2021/06/29 03:30:10;;;;;;;20.77;19.37;;;18.80;93.70;;;;;;5088268;28;20464;-75
2021/06/29 03:32:38;;;;;;;20.67;19.63;;;18.80;94.10;;;;;;5079326;28;20468;-75
2021/06/29 03:35:07;;;;;;;20.27;19.17;;;18.80;93.80;;;;;;5080151;28;20524;-76
2021/06/29 03:37:38;;;;;;;19.83;18.83;;;18.90;93.10;;;;;;5087810;28;20467;-75
2021/06/29 03:40:06;;;;;;;20.10;18.97;;;18.90;93.60;;;;;;5086293;28;20477;-76
2021/06/29 03:42:33;;;;;;;20.00;18.90;;;18.90;93.90;;;;;;5080018;28;20460;-76
2021/06/29 03:45:00;;;;;;;19.70;18.70;;;18.90;94.20;;;;;;5085147;28;20870;-75
2021/06/29 03:47:27;;;;;;;22.30;21.20;;;19.00;94.20;;;;;;5083820;28;20457;-75
2021/06/29 03:49:53;;;;;;;19.90;18.90;;;18.90;94.40;;;;;;5085921;28;20449;-75
2021/06/29 03:52:20;;;;;;;19.30;18.30;;;18.80;94.80;;;;;;5083974;28;20453;-75
2021/06/29 03:54:48;;;;;;;20.30;19.30;;;18.90;94.50;;;;;;5092016;28;20595;-75
2021/06/29 03:57:15;;;;;;;20.13;18.93;;;18.90;94.40;;;;;;5092922;28;20448;-75
2021/06/29 03:59:42;;;;;;;19.50;18.40;;;18.80;94.60;;;;;;5085765;28;20479;-75
2021/06/29 04:02:09;;;;;;;19.50;18.50;;;18.80;94.80;;;;;;5087911;28;20932;-75
2021/06/29 04:04:36;;;;;;;20.60;19.40;;;18.80;94.60;;;;;;5085641;28;20828;-75
2021/06/29 04:07:06;;;;;;;20.10;19.10;;;18.80;94.50;;;;;;5093656;28;20483;-75
2021/06/29 04:09:33;;;;;;;20.73;19.40;;;18.90;94.20;;;;;;5085418;28;20472;-75
2021/06/29 04:12:02;;;;;;;21.60;20.50;;;18.80;94.30;;;;;;5083923;28;20609;-75
2021/06/29 04:14:28;;;;;;;20.20;19.10;;;18.90;94.20;;;;;;5085751;28;20469;-75
2021/06/29 04:16:55;;;;;;;21.33;19.80;;;19.00;94.00;;;;;;5086689;28;20953;-75
2021/06/29 04:19:22;;;;;;;20.63;19.50;;;19.00;94.10;;;;;;5087846;28;20483;-75
2021/06/29 04:21:49;;;;;;;19.43;18.33;;;19.00;94.10;;;;;;5085414;28;21044;-75
2021/06/29 04:24:16;;;;;;;19.57;18.37;;;18.90;93.70;;;;;;5091152;27;20473;-75
2021/06/29 04:26:43;;;;;;;19.83;18.83;;;18.90;93.20;;;;;;5083830;28;20463;-75
2021/06/29 04:29:12;;;;;;;19.97;18.87;;;18.80;92.60;;;;;;5088735;27;21014;-75
2021/06/29 04:31:39;;;;;;;19.77;18.67;;;18.70;92.90;;;;;;5082246;28;20544;-77
2021/06/29 04:34:05;;;;;;;19.80;18.83;;;18.60;92.90;;;;;;5084976;28;20206;-76
2021/06/29 04:36:32;;;;;;;22.30;21.10;;;18.80;91.90;;;;;;5082759;28;20457;-76
2021/06/29 04:38:59;;;;;;;21.80;20.50;;;18.70;91.40;;;;;;5084455;28;20457;-76
2021/06/29 04:41:26;;;;;;;19.50;18.50;;;18.50;92.70;;;;;;5085442;28;20468;-76
2021/06/29 04:43:53;;;;;;;19.80;18.60;;;18.40;94.80;;;;;;5084902;28;20480;-77
2021/06/29 04:46:21;;;;;;;19.23;18.23;;;18.30;95.80;;;;;;5083683;28;20814;-75
2021/06/29 04:48:48;;;;;;;18.87;17.60;;;18.20;95.90;;;;;;5101883;27;20478;-75
2021/06/29 04:51:15;;;;;;;19.67;18.57;;;18.20;96.00;;;;;;5092874;28;20459;-75
2021/06/29 04:53:42;;;;;;;19.97;18.80;;;18.30;96.20;;;;;;5083038;28;20449;-75
2021/06/29 04:56:17;;;;;;;20.40;19.20;;;18.50;95.90;;;;;;5082385;28;20463;-76
2021/06/29 04:58:45;;;;;;;21.13;19.37;;;18.60;95.40;;;;;;5094880;28;21204;-74
2021/06/29 05:01:12;;;;;;;18.80;17.80;;;18.70;95.20;;;;;;5083840;28;20905;-76
2021/06/29 05:03:41;;;;;;;20.03;19.03;;;18.90;94.80;;;;;;5087572;28;20461;-77
2021/06/29 05:06:08;;;;;;;19.70;18.70;;;18.90;94.20;;;;;;5086077;28;20988;-74
2021/06/29 05:08:34;;;;;;;20.60;19.40;;;18.90;93.90;;;;;;5080935;28;20993;-75
2021/06/29 05:11:01;;;;;;;19.53;18.20;;;19.00;92.90;;;;;;5080940;28;20579;-75
2021/06/29 05:13:28;;;;;;;21.27;19.90;;;19.00;92.50;;;;;;5083418;28;20453;-75
2021/06/29 05:15:55;;;;;;;19.10;18.00;;;19.00;92.70;;;;;;5078249;28;20508;-75
2021/06/29 05:18:22;;;;;;;21.60;20.43;;;19.10;92.70;;;;;;5092268;28;20466;-75
2021/06/29 05:20:51;;;;;;;20.43;19.33;;;19.10;92.50;;;;;;5084366;28;20469;-75
2021/06/29 05:23:18;;;;;;;19.87;18.77;;;19.20;92.60;;;;;;5090833;28;20457;-75
2021/06/29 05:25:45;;;;;;;21.77;20.30;;;19.30;92.50;;;;;;5082973;28;20566;-75
2021/06/29 05:28:12;;;;;;;18.93;18.00;;;19.30;92.40;;;;;;5095470;28;20582;-75
2021/06/29 05:30:39;;;;;;;20.43;19.20;;;19.40;92.40;;;;;;5083547;28;20458;-78
2021/06/29 05:33:06;;;;;;;22.10;20.73;;;19.30;92.40;;;;;;5083091;28;20999;-77
2021/06/29 05:35:33;;;;;;;19.63;18.47;;;19.50;91.60;;;;;;5082850;28;20862;-78
2021/06/29 05:38:01;;;;;;;19.57;18.57;;;19.60;91.00;;;;;;5097825;28;20826;-77
2021/06/29 05:40:29;;;;;;;21.37;20.07;;;19.60;91.20;;;;;;5078878;28;20477;-77
2021/06/29 05:42:55;;;;;;;20.13;19.03;;;19.60;91.20;;;;;;5079285;28;20464;-77
2021/06/29 05:45:22;;;;;;;20.67;19.50;;;19.70;90.80;;;;;;5078967;28;21034;-76
2021/06/29 05:47:50;;;;;;;21.40;20.10;;;19.70;90.70;;;;;;5080662;28;20487;-76
2021/06/29 05:50:18;;;;;;;23.00;21.70;;;19.60;91.20;;;;;;5084226;28;20457;-76
2021/06/29 05:52:46;;;;;;;22.80;21.40;;;19.60;91.50;;;;;;5084435;28;21234;-76
2021/06/29 05:55:15;;;;;;;20.33;19.13;;;19.60;91.50;;;;;;5083187;28;20568;-76
2021/06/29 05:57:42;;;;;;;20.73;19.50;;;19.60;91.20;;;;;;5085038;28;20488;-76
2021/06/29 06:00:12;;;;;;;22.40;21.30;;;19.60;91.30;;;;;;5080431;28;20479;-76
2021/06/29 06:02:39;;;;;;;20.97;19.87;;;19.60;91.20;;;;;;5081926;28;20828;-76
2021/06/29 06:05:08;;;;;;;19.87;18.67;;;19.70;90.90;;;;;;5080936;28;20556;-77
2021/06/29 06:07:35;;;;;;;20.53;19.43;;;19.90;90.40;;;;;;5077990;28;20460;-76
2021/06/29 06:10:03;;;;;;;22.50;21.30;;;19.90;90.70;;;;;;5082436;28;20460;-76
2021/06/29 06:12:32;;;;;;;22.10;20.90;;;20.00;90.10;;;;;;5080234;28;20463;-76
2021/06/29 06:14:59;;;;;;;21.93;20.63;;;20.10;89.40;;;;;;5083511;28;20475;-76
2021/06/29 06:17:26;;;;;;;21.13;19.93;;;20.30;89.10;;;;;;5082214;28;20575;-76
2021/06/29 06:19:54;;;;;;;21.43;20.33;;;20.40;88.70;;;;;;5080549;28;20476;-76
2021/06/29 06:22:21;;;;;;;20.83;19.70;;;20.50;88.10;;;;;;5088706;28;21171;-77
2021/06/29 06:24:48;;;;;;;21.70;20.30;;;20.70;87.70;;;;;;5082612;28;20476;-76
2021/06/29 06:27:16;;;;;;;21.70;20.47;;;20.90;86.80;;;;;;5086121;28;20459;-77
2021/06/29 06:29:44;;;;;;;23.23;21.50;;;21.00;86.10;;;;;;5091253;27;20488;-77
2021/06/29 06:32:11;;;;;;;23.40;22.20;;;21.00;85.80;;;;;;5086907;28;20452;-77
2021/06/29 06:34:38;;;;;;;23.00;21.60;;;21.10;85.10;;;;;;5087310;28;20516;-76
2021/06/29 06:37:05;;;;;;;23.73;22.40;;;21.20;84.60;;;;;;5080227;28;20456;-76
2021/06/29 06:39:32;;;;;;;23.37;22.07;;;21.30;84.40;;;;;;5082142;28;20498;-77
2021/06/29 06:41:59;;;;;;;23.33;22.13;;;21.60;83.50;;;;;;5082742;28;20458;-76
2021/06/29 06:44:26;;;;;;;28.87;27.50;;;21.90;82.00;;;;;;5079682;28;21576;-76
2021/06/29 06:46:54;;;;;;;26.53;25.17;;;22.20;80.60;;;;;;5082468;28;20523;-78
2021/06/29 06:49:21;;;;;;;26.53;25.03;;;22.50;79.80;;;;;;5078323;28;20449;-78
2021/06/29 06:51:48;;;;;;;25.30;23.80;;;22.70;78.80;;;;;;5083697;28;20465;-78
2021/06/29 06:54:15;;;;;;;27.90;26.20;;;22.80;78.10;;;;;;5087616;28;20472;-78
2021/06/29 06:56:42;;;;;;;24.70;23.40;;;22.80;76.30;;;;;;5080013;28;20449;-76
2021/06/29 06:59:08;;;;;;;25.90;24.20;;;22.60;77.20;;;;;;5085037;28;20570;-76
2021/06/29 07:01:38;;;;;;;25.40;24.10;;;22.50;76.40;;;;;;5080429;28;20852;-76
2021/06/29 07:04:06;;;;;;;25.03;23.60;;;22.40;76.70;;;;;;5067047;28;20530;-79
2021/06/29 07:06:33;;;;;;;25.20;23.73;;;22.40;77.00;;;;;;5080184;28;20460;-77
2021/06/29 07:09:00;;;;;;;24.57;23.27;;;22.30;77.80;;;;;;5090200;28;20460;-77
2021/06/29 07:11:27;;;;;;;25.33;23.93;;;22.50;77.70;;;;;;5082638;28;20548;-77
2021/06/29 07:13:54;;;;;;;25.20;23.90;;;22.60;76.40;;;;;;5082995;28;20812;-75
2021/06/29 07:16:22;;;;;;;26.00;24.70;;;22.50;76.10;;;;;;5082792;28;20843;-77
2021/06/29 07:18:49;;;;;;;25.20;23.80;;;22.40;77.20;;;;;;5088561;28;20947;-76
2021/06/29 07:21:18;;;;;;;25.57;24.07;;;22.30;77.40;;;;;;5086950;28;20485;-76
2021/06/29 07:23:45;;;;;;;25.27;23.93;;;22.50;77.20;;;;;;5103895;28;20547;-76
2021/06/29 07:26:15;;;;;;;26.60;25.10;;;22.40;76.70;;;;;;5085627;28;21323;-78
2021/06/29 07:28:42;;;;;;;27.17;25.63;;;22.40;76.30;;;;;;5092266;28;20541;-78
2021/06/29 07:31:10;;;;;;;27.10;25.50;;;22.50;75.80;;;;;;5090504;28;21265;-77
2021/06/29 07:33:37;;;;;;;26.63;25.20;;;22.40;75.70;;;;;;5093733;28;21087;-76
2021/06/29 07:36:04;;;;;;;27.03;25.53;;;22.40;76.60;;;;;;5087858;28;21002;-77
2021/06/29 07:38:32;;;;;;;29.17;27.17;;;22.60;75.90;;;;;;5097651;28;20461;-73
2021/06/29 07:40:59;;;;;;;26.83;25.13;;;22.80;74.70;;;;;;5099684;28;20482;-73
2021/06/29 07:43:26;;;;;;;26.53;25.10;;;23.00;74.60;;;;;;5088036;27;20467;-73
2021/06/29 07:45:53;;;;;;;26.27;24.87;;;23.20;73.60;;;;;;5107240;28;20462;-74
2021/06/29 07:48:20;;;;;;;25.97;24.67;;;23.30;73.30;;;;;;5101794;28;20556;-74
2021/06/29 07:50:47;;;;;;;27.53;26.03;;;23.30;72.80;;;;;;5107746;28;20454;-73
2021/06/29 07:53:14;;;;;;;29.53;27.83;;;23.50;72.40;;;;;;5089512;28;20466;-72
2021/06/29 07:55:42;;;;;;;27.57;25.87;;;23.60;72.00;;;;;;5086221;28;20473;-72
2021/06/29 07:58:09;;;;;;;27.40;25.90;;;23.70;72.00;;;;;;5085069;28;20548;-72
2021/06/29 08:00:36;;;;;;;27.50;26.10;;;23.80;71.60;;;;;;5086569;28;20469;-72
2021/06/29 08:03:03;;;;;;;29.20;27.60;;;24.00;70.90;;;;;;5084155;28;20472;-73
2021/06/29 08:05:31;;;;;;;28.27;26.77;;;24.00;70.20;;;;;;5086566;28;21082;-73
2021/06/29 08:07:58;;;;;;;26.33;24.93;;;24.00;70.30;;;;;;5085836;28;20619;-73
2021/06/29 08:10:25;;;;;;;28.27;26.70;;;24.00;69.80;;;;;;5088609;28;20492;-73
2021/06/29 08:12:54;;;;;;;29.07;27.07;;;24.10;68.90;;;;;;5089914;28;20461;-73
2021/06/29 08:15:21;;;;;;;28.77;27.07;;;24.10;68.50;;;;;;5090504;28;21055;-73
2021/06/29 08:17:48;;;;;;;27.37;25.50;;;24.20;67.70;;;;;;5094009;27;20457;-74
2021/06/29 08:20:17;;;;;;;28.20;26.70;;;24.20;67.70;;;;;;5085643;28;20480;-73
2021/06/29 08:22:45;;;;;;;28.40;26.80;;;24.20;67.20;;;;;;5080967;28;20458;-73
2021/06/29 08:25:12;;;;;;;27.87;26.37;;;24.20;67.00;;;;;;5084649;28;20512;-73
2021/06/29 08:27:39;;;;;;;28.37;26.77;;;24.40;66.80;;;;;;5084267;28;20966;-73
2021/06/29 08:30:10;;;;;;;27.40;25.70;;;24.40;66.00;;;;;;5085868;28;20456;-73
2021/06/29 08:32:38;;;;;;;28.77;27.27;;;24.50;65.90;;;;;;5091166;28;20466;-73
2021/06/29 08:35:06;;;;;;;28.47;26.87;;;24.60;65.60;;;;;;5091939;28;20978;-74
2021/06/29 08:37:33;;;;;;;29.50;27.90;;;24.70;66.40;;;;;;5091405;28;20464;-73
2021/06/29 08:40:00;;;;;;;28.17;26.63;;;24.80;65.80;;;;;;5081548;28;20477;-73
2021/06/29 08:42:29;;;;;;;29.60;28.00;;;24.80;65.90;;;;;;5086338;28;20468;-74
2021/06/29 08:44:56;;;;;;;29.47;27.87;;;25.10;65.60;;;;;;5084622;28;20929;-73
2021/06/29 08:47:25;;;;;;;29.80;28.23;;;25.00;65.40;;;;;;5084298;28;20462;-71
2021/06/29 08:49:51;;;;;;;28.10;26.60;;;25.10;65.50;;;;;;5084575;28;20947;-72
2021/06/29 08:52:18;;;;;;;28.30;26.83;;;25.20;64.40;;;;;;5088681;28;20463;-72
2021/06/29 08:54:45;;;;;;;28.23;26.73;;;25.30;63.10;;;;;;5085695;28;20479;-71
2021/06/29 08:57:12;;;;;;;28.40;26.70;;;25.00;64.00;;;;;;5086567;28;20456;-71
2021/06/29 08:59:41;;;;;;;27.47;25.97;;;25.00;65.10;;;;;;5088050;28;20456;-73
2021/06/29 09:02:08;;;;;;;27.93;26.43;;;25.10;65.70;;;;;;5070492;28;20479;-72
2021/06/29 09:04:47;;;;;;;29.00;27.40;;;25.20;63.50;;;;;;5085034;28;20988;-72
2021/06/29 09:07:19;;;;;;;29.33;27.73;;;25.20;63.10;;;;;;5088692;28;20460;-72
2021/06/29 09:09:50;;;;;;;28.17;26.43;;;25.30;63.00;;;;;;5091718;28;20601;-73
2021/06/29 09:12:43;;;;;;;29.03;27.43;;;25.40;63.70;;;;;;5079034;28;20456;-72
2021/06/29 09:15:32;;;;;;;30.43;28.73;;;25.50;64.30;;;;;;5088427;28;20484;-73
2021/06/29 09:18:16;;;;;;;31.87;29.97;;;25.60;64.40;;;;;;5076883;28;20500;-73
2021/06/29 09:20:48;;;;;;;31.17;29.37;;;25.70;65.00;;;;;;5078627;28;20517;-72
2021/06/29 09:23:17;;;;;;;29.60;27.70;;;25.80;64.00;;;;;;5095925;27;20473;-73
2021/06/29 09:25:47;;;;;;;29.80;28.10;;;25.70;64.10;;;;;;5084686;28;21221;-73
2021/06/29 09:28:16;;;;;;;29.17;27.63;;;25.50;61.40;;;;;;5081519;28;21113;-73
2021/06/29 09:30:46;;;;;;;30.23;28.53;;;25.10;61.40;;;;;;5085364;28;21472;-73
2021/06/29 09:33:15;;;;;;;30.17;28.57;;;24.80;62.70;;;;;;5084606;28;20460;-73
2021/06/29 09:35:45;;;;;;;32.00;30.20;;;24.90;62.80;;;;;;5083569;28;20483;-73
2021/06/29 09:38:19;;;;;;;30.40;28.70;;;25.20;62.60;;;;;;5083081;28;20473;-72
2021/06/29 09:40:48;;;;;;;29.27;27.70;;;25.40;62.30;;;;;;5088470;28;20516;-73
2021/06/29 09:43:17;;;;;;;30.67;29.07;;;25.60;61.60;;;;;;5083497;28;20536;-73
2021/06/29 09:45:46;;;;;;;28.30;26.70;;;25.90;62.10;;;;;;5084234;28;20479;-73
2021/06/29 09:48:14;;;;;;;33.77;31.77;;;26.10;61.30;;;;;;5078453;28;20457;-73
2021/06/29 09:50:46;;;;;;;30.30;28.70;;;26.30;60.70;;;;;;5089282;28;20464;-73
2021/06/29 09:53:22;;;;;;;31.13;29.43;;;26.30;60.60;;;;;;5082469;28;20538;-73
2021/06/29 09:55:52;;;;;;;30.00;28.40;;;26.50;60.30;;;;;;5082799;28;20538;-73
2021/06/29 09:58:20;;;;;;;31.10;29.40;;;26.50;60.30;;;;;;5074509;28;20537;-73
2021/06/29 10:00:49;;;;;;;28.80;27.10;;;26.50;59.40;;;;;;5077040;28;20495;-73
2021/06/29 10:03:22;;;;;;;30.63;28.93;;;26.70;58.80;;;;;;5083865;28;20468;-73
2021/06/29 10:05:50;;;;;;;28.10;26.60;;;26.90;58.80;;;;;;5073707;28;20477;-73
2021/06/29 10:08:29;;;;;;;29.73;27.90;;;27.00;58.80;;;;;;5094415;28;20569;-72
2021/06/29 10:11:19;;;;;;;28.77;27.27;;;27.10;58.20;;;;;;5084334;28;20532;-74
2021/06/29 10:13:50;;;;;;;29.87;28.27;;;27.20;57.60;;;;;;5083276;28;21158;-73
2021/06/29 10:16:21;;;;;;;30.00;28.30;;;27.30;57.90;;;;;;5081480;28;20453;-72
2021/06/29 10:18:54;;;;;;;31.47;29.67;;;27.30;57.30;;;;;;5101299;28;20459;-73
2021/06/29 10:21:23;;;;;;;30.60;28.90;;;27.10;56.50;;;;;;5082634;28;20484;-73
2021/06/29 10:23:54;;;;;;;29.30;27.70;;;27.20;56.70;;;;;;5087191;28;20476;-73
2021/06/29 10:26:22;;;;;;;30.53;28.73;;;27.30;56.30;;;;;;5079692;28;20457;-73
2021/06/29 10:28:51;;;;;;;29.90;28.30;;;27.00;56.30;;;;;;5086763;28;20461;-73
2021/06/29 10:31:21;;;;;;;29.17;27.47;;;26.70;56.70;;;;;;5083627;28;20453;-73
2021/06/29 10:33:49;;;;;;;29.77;28.07;;;26.80;57.10;;;;;;5076622;27;20477;-73
2021/06/29 10:36:16;;;;;;;30.80;28.63;;;27.00;57.00;;;;;;5085088;28;20468;-74
2021/06/29 10:38:44;;;;;;;29.10;27.50;;;27.20;56.30;;;;;;5089528;27;20461;-76
2021/06/29 10:41:12;;;;;;;32.40;30.50;;;27.30;56.60;;;;;;5085827;28;20473;-74
2021/06/29 10:43:42;;;;;;;31.30;29.60;;;27.60;57.10;;;;;;5075374;28;20539;-76
2021/06/29 10:46:14;;;;;;;32.10;30.30;;;27.80;55.50;;;;;;5079704;28;20453;-77
2021/06/29 10:48:42;;;;;;;29.77;28.10;;;27.80;55.60;;;;;;5085154;28;20484;-75
2021/06/29 10:51:13;;;;;;;30.27;28.67;;;27.80;55.70;;;;;;5082172;28;20445;-77
2021/06/29 10:53:43;;;;;;;29.47;27.87;;;28.00;54.90;;;;;;5084496;28;20461;-73
2021/06/29 10:56:16;;;;;;;29.20;27.60;;;28.10;53.70;;;;;;5085216;28;20497;-73
2021/06/29 10:58:46;;;;;;;28.90;27.33;;;28.00;54.10;;;;;;5084662;28;20457;-74
2021/06/29 11:01:30;;;;;;;28.40;26.80;;;27.70;55.20;;;;;;5086729;28;20484;-73
2021/06/29 11:03:59;;;;;;;30.00;28.00;;;27.80;55.80;;;;;;5082187;28;20840;-73
2021/06/29 11:06:42;;;;;;;30.13;28.37;;;27.90;55.80;;;;;;5094193;28;20467;-72
2021/06/29 11:09:14;;;;;;;30.63;28.93;;;27.80;57.30;;;;;;5077162;28;20844;-73
2021/06/29 11:12:02;;;;;;;32.53;30.60;;;27.90;55.50;;;;;;5084314;28;20876;-74
2021/06/29 11:14:30;;;;;;;30.10;28.40;;;27.90;56.10;;;;;;5087931;28;20960;-73
2021/06/29 11:16:59;;;;;;;30.37;28.67;;;27.80;56.40;;;;;;5081947;28;20970;-73
2021/06/29 11:20:05;;;;;;;29.70;28.00;;;27.90;58.60;;;;;;5084921;28;20465;-73
2021/06/29 11:23:05;;;;;;;29.80;28.10;;;28.30;57.20;;;;;;5086437;28;20717;-74
2021/06/29 11:25:38;;;;;;;30.60;28.80;;;28.60;56.10;;;;;;5090064;27;20851;-73
2021/06/29 11:28:09;;;;;;;29.73;28.00;;;28.40;56.60;;;;;;5096236;28;20967;-74
2021/06/29 11:31:02;;;;;;;31.40;29.60;;;28.60;57.80;;;;;;5089636;27;20830;-74
2021/06/29 11:33:35;;;;;;;33.23;31.33;;;28.80;57.60;;;;;;5088209;27;20487;-74
2021/06/29 11:36:03;;;;;;;30.30;28.60;;;28.80;55.50;;;;;;5084061;28;20473;-74
2021/06/29 11:38:35;;;;;;;30.50;28.80;;;28.80;55.20;;;;;;5100632;28;20953;-74
2021/06/29 11:41:27;;;;;;;31.93;30.03;;;28.40;54.90;;;;;;5082181;28;20449;-74
2021/06/29 11:43:57;;;;;;;29.90;28.20;;;28.00;55.60;;;;;;5089327;28;20556;-76
2021/06/29 11:46:49;;;;;;;30.00;28.20;;;27.50;56.50;;;;;;5084282;28;20775;-75
2021/06/29 11:49:17;;;;;;;30.63;28.83;;;27.20;57.50;;;;;;5083676;28;20907;-75
2021/06/29 11:51:52;;;;;;;30.87;29.07;;;26.90;58.50;;;;;;5084573;28;22017;-76
2021/06/29 11:54:30;;;;;;;29.57;27.67;;;27.20;57.30;;;;;;5083872;28;20496;-76
2021/06/29 11:56:58;;;;;;;29.60;27.80;;;27.20;57.80;;;;;;5087416;28;20486;-76
2021/06/29 11:59:28;;;;;;;30.03;28.30;;;27.60;56.60;;;;;;5089909;28;20457;-77
2021/06/29 12:02:02;;;;;;;32.63;30.83;;;27.80;56.30;;;;;;5084712;27;20473;-75
2021/06/29 12:04:29;;;;;;;29.47;27.87;;;27.80;56.40;;;;;;5078416;28;20568;-77
2021/06/29 12:07:01;;;;;;;30.60;28.80;;;27.90;56.20;;;;;;5085439;28;20462;-73
2021/06/29 12:09:29;;;;;;;32.50;30.70;;;28.10;55.40;;;;;;5076001;28;20987;-72
2021/06/29 12:12:18;;;;;;;31.07;29.10;;;28.10;55.40;;;;;;5086668;28;20461;-73
2021/06/29 12:14:47;;;;;;;30.60;28.80;;;28.40;55.90;;;;;;5091774;28;20489;-72
2021/06/29 12:17:14;;;;;;;31.37;29.47;;;28.80;54.80;;;;;;5094928;28;20460;-73
2021/06/29 12:19:41;;;;;;;30.53;28.63;;;28.80;53.60;;;;;;5086678;28;20453;-74
2021/06/29 12:22:08;;;;;;;29.73;28.03;;;28.60;54.60;;;;;;5088163;28;20468;-76
2021/06/29 12:24:36;;;;;;;30.83;28.80;;;28.80;53.80;;;;;;5091607;28;20854;-75
2021/06/29 12:27:17;;;;;;;29.90;28.13;;;29.00;53.50;;;;;;5084575;28;20461;-74
2021/06/29 12:29:43;;;;;;;30.90;29.10;;;29.00;54.60;;;;;;5085294;28;20489;-77
2021/06/29 12:32:23;;;;;;;31.03;29.13;;;29.20;53.20;;;;;;5085170;28;20453;-79
2021/06/29 12:34:50;;;;;;;30.10;28.30;;;29.40;54.10;;;;;;5087767;28;21270;-80
2021/06/29 12:37:17;;;;;;;34.87;32.77;;;29.50;53.20;;;;;;5092971;28;20454;-76